Terminal Aerodrome Forecast
Issued by NWS

Home | Current Version | Previous Version | Text Only | Print | Product List | Glossary On
Versions: 1 2 3 4 5 6 7 8 9 10 11 12 13 14 15 16 17 18 19 20 21
000
FTUS44 KMAF 080610 AAA
TAFINK
TAF AMD
KINK 080610Z 0806/0906 04014G24KT P6SM OVC020
      TEMPO 0808/0810 3SM -RASN BR
     FM081000 04018G27KT 3SM -SN BR OVC010
     FM081800 06011KT P6SM OVC025
     FM090000 09010KT P6SM OVC035=

USA.gov is the U.S. government's official web portal to all federal, state and local government web resources and services.